Time;durP1;ratioP1;P1;durP2;ratioP2;P2;SDS_P1;SDS_P2;PMS_P1;PMS_P2;Temp;Humidity;BMP_temperature;BMP_pressure;BME280_temperature;BME280_humidity;BME280_pressure;Samples;Min_cycle;Max_cycle;Signal;HPM_P1;HPM_P2
2022/06/22 00:00:19;;;;;;;4.53;3.10;;;;;;;12.19;77.40;99764.23;1772263;80;25732;-69
2022/06/22 00:02:51;;;;;;;4.53;3.42;;;;;;;12.17;77.53;99771.34;1771634;81;25611;-69
2022/06/22 00:05:32;;;;;;;6.03;3.20;;;;;;;12.15;77.57;99765.47;1750505;81;25675;-68
2022/06/22 00:08:03;;;;;;;6.15;3.50;;;;;;;12.12;77.67;99775.61;1772251;81;25619;-67
2022/06/22 00:10:37;;;;;;;5.72;3.87;;;;;;;12.09;77.64;99774.38;1761170;81;28003;-67
2022/06/22 00:13:08;;;;;;;4.58;3.47;;;;;;;12.05;77.81;99766.66;1761912;81;26695;-69
2022/06/22 00:15:38;;;;;;;7.45;3.95;;;;;;;12.02;77.62;99773.31;1770952;81;25559;-68
2022/06/22 00:18:28;;;;;;;5.53;3.47;;;;;;;12.00;77.62;99770.92;1750463;81;26156;-69
2022/06/22 00:21:03;;;;;;;4.87;3.60;;;;;;;11.96;77.44;99773.51;1772254;81;25567;-69
2022/06/22 00:23:37;;;;;;;5.12;3.60;;;;;;;11.93;77.95;99767.95;1771114;81;27372;-67
2022/06/22 00:26:31;;;;;;;5.83;3.55;;;;;;;11.90;78.22;99763.98;1772069;81;25831;-67
2022/06/22 00:29:11;;;;;;;5.87;3.65;;;;;;;11.88;78.16;99760.78;1771946;80;25671;-67
2022/06/22 00:31:42;;;;;;;4.80;3.65;;;;;;;11.84;78.40;99757.16;1771868;81;26550;-67
2022/06/22 00:34:16;;;;;;;4.10;3.40;;;;;;;11.82;78.43;99762.12;1763847;81;25667;-66
2022/06/22 00:37:02;;;;;;;5.95;3.27;;;;;;;11.80;78.55;99764.37;1759312;81;28016;-67
2022/06/22 00:39:34;;;;;;;4.85;4.00;;;;;;;11.76;78.75;99769.66;1767818;81;25464;-68
2022/06/22 00:42:21;;;;;;;6.60;3.25;;;;;;;11.73;78.86;99774.91;1772135;80;25561;-67
2022/06/22 00:45:12;;;;;;;3.70;3.30;;;;;;;11.71;79.06;99782.05;1771670;80;26229;-66
2022/06/22 00:47:49;;;;;;;6.03;3.40;;;;;;;11.68;78.84;99788.11;1772099;81;25641;-67
2022/06/22 00:50:21;;;;;;;5.75;3.90;;;;;;;11.64;79.04;99790.44;1770826;81;27575;-66
2022/06/22 00:53:15;;;;;;;8.40;3.92;;;;;;;11.63;79.04;99806.45;1772358;80;25389;-66
2022/06/22 00:55:49;;;;;;;4.58;3.40;;;;;;;11.59;79.28;99792.77;1770201;80;25543;-66
2022/06/22 00:58:47;;;;;;;7.08;3.50;;;;;;;11.56;79.27;99797.48;1755660;81;25667;-66
2022/06/22 01:01:28;;;;;;;4.03;3.70;;;;;;;11.54;79.22;99795.13;1777677;80;25529;-68
2022/06/22 01:04:21;;;;;;;4.08;3.65;;;;;;;11.51;79.32;99786.84;1771249;80;27364;-66
2022/06/22 01:07:14;;;;;;;4.60;3.87;;;;;;;11.50;79.55;99790.12;1776215;80;26099;-66
2022/06/22 01:09:57;;;;;;;5.03;3.52;;;;;;;11.47;79.40;99784.00;1777667;80;25426;-66
2022/06/22 01:12:31;;;;;;;4.05;3.70;;;;;;;11.45;79.15;99786.81;1777548;79;25718;-68
2022/06/22 01:15:06;;;;;;;4.90;3.75;;;;;;;11.44;79.35;99783.86;1776499;80;25569;-66
2022/06/22 01:17:56;;;;;;;6.60;3.77;;;;;;;11.43;79.84;99785.00;1769028;80;27319;-66
2022/06/22 01:20:48;;;;;;;5.47;3.72;;;;;;;11.40;79.74;99785.86;1777567;79;25619;-66
2022/06/22 01:23:43;;;;;;;7.90;3.90;;;;;;;11.36;79.75;99785.50;1777573;80;25549;-68
2022/06/22 01:26:38;;;;;;;7.17;3.60;;;;;;;11.34;79.95;99780.95;1770249;80;26144;-68
2022/06/22 01:29:23;;;;;;;4.75;3.27;;;;;;;11.31;80.05;99777.56;1775845;80;25368;-66
2022/06/22 01:32:03;;;;;;;5.00;3.52;;;;;;;11.28;80.09;99778.22;1771517;81;27541;-66
2022/06/22 01:34:37;;;;;;;6.35;4.03;;;;;;;11.25;79.94;99777.50;1753400;81;25616;-67
2022/06/22 01:37:08;;;;;;;4.83;3.62;;;;;;;11.21;79.87;99765.19;1772375;80;25726;-67
2022/06/22 01:39:35;;;;;;;6.70;4.00;;;;;;;11.18;79.82;99761.20;1772072;81;25681;-68
2022/06/22 01:42:33;;;;;;;4.75;3.45;;;;;;;11.16;79.82;99758.60;1772306;80;25684;-69
2022/06/22 01:45:14;;;;;;;7.58;4.17;;;;;;;11.14;79.95;99760.84;1772617;80;27322;-69
2022/06/22 01:47:58;;;;;;;4.33;3.58;;;;;;;11.09;79.73;99763.16;1758905;80;25461;-69
2022/06/22 01:50:46;;;;;;;4.78;4.33;;;;;;;11.08;80.41;99762.13;1777672;80;25531;-69
2022/06/22 01:53:26;;;;;;;8.70;5.55;;;;;;;11.05;80.35;99759.53;1747925;80;26470;-69
2022/06/22 01:55:58;;;;;;;5.47;4.50;;;;;;;11.01;80.38;99759.36;1777284;80;25545;-67
2022/06/22 01:59:08;;;;;;;8.88;5.10;;;;;;;11.00;80.45;99757.01;1766871;80;27990;-67
2022/06/22 02:01:48;;;;;;;7.20;4.58;;;;;;;10.98;80.59;99758.69;1772228;80;25907;-67
2022/06/22 02:04:38;;;;;;;5.65;4.03;;;;;;;10.96;80.60;99764.17;1772367;81;25386;-67
2022/06/22 02:10:37;;;;;;;5.20;4.10;;;;;;;10.92;80.84;99774.84;1749804;81;25396;-68
2022/06/22 02:13:24;;;;;;;8.03;3.65;;;;;;;10.90;81.11;99777.09;1772417;80;27396;-67
2022/06/22 02:16:08;;;;;;;4.60;4.20;;;;;;;10.89;81.41;99776.06;1739524;82;25769;-67
2022/06/22 02:18:50;;;;;;;7.45;4.50;;;;;;;10.89;81.52;99778.77;1739508;82;25688;-67
2022/06/22 02:21:40;;;;;;;10.05;4.67;;;;;;;10.87;81.68;99780.44;1739657;82;25681;-66
2022/06/22 02:24:20;;;;;;;6.58;4.15;;;;;;;10.88;81.79;99786.63;1739757;82;25564;-68
2022/06/22 02:26:58;;;;;;;5.62;4.87;;;;;;;10.87;81.72;99799.38;1714840;82;27492;-67
2022/06/22 02:29:29;;;;;;;5.28;4.65;;;;;;;10.87;82.07;99799.38;1739619;82;25463;-67
2022/06/22 02:32:03;;;;;;;9.00;4.65;;;;;;;10.88;82.12;99796.10;1739699;82;25419;-66
2022/06/22 02:34:32;;;;;;;6.05;4.53;;;;;;;10.88;82.37;99800.98;1739569;82;25846;-67
2022/06/22 02:37:01;;;;;;;6.03;4.67;;;;;;;10.90;82.45;99805.50;1739812;82;25750;-66
2022/06/22 02:39:32;;;;;;;9.23;4.90;;;;;;;10.91;82.46;99804.36;1739889;82;27613;-67
2022/06/22 02:44:46;;;;;;;7.08;4.60;;;;;;;10.93;82.83;99808.92;1724780;83;25599;-67
2022/06/22 02:47:41;;;;;;;6.10;4.78;;;;;;;10.95;82.78;99824.27;1724721;83;28089;-67
2022/06/22 02:50:30;;;;;;;8.48;4.87;;;;;;;10.95;82.97;99820.20;1724825;82;25703;-68
2022/06/22 02:53:01;;;;;;;9.28;4.92;;;;;;;10.96;83.12;99820.42;1739934;81;27387;-69
2022/06/22 02:55:32;;;;;;;5.42;4.83;;;;;;;11.14;83.24;99853.66;1756806;81;25481;-69
2022/06/22 02:58:02;;;;;;;5.55;5.00;;;;;;;10.99;83.33;99825.77;1756854;81;25262;-69
2022/06/22 03:00:38;;;;;;;9.05;5.47;;;;;;;11.02;83.36;99827.83;1756944;81;25721;-69
2022/06/22 03:03:12;;;;;;;7.37;5.40;;;;;;;11.03;83.55;99829.41;1756865;81;25614;-68
2022/06/22 03:05:40;;;;;;;8.55;5.53;;;;;;;11.05;83.63;99824.48;1756938;81;27931;-68
2022/06/22 03:08:08;;;;;;;7.25;5.37;;;;;;;11.09;83.77;99822.71;1756830;81;25393;-69
2022/06/22 03:10:48;;;;;;;10.45;5.35;;;;;;;11.09;83.93;99826.77;1756862;81;25645;-69
2022/06/22 03:13:19;;;;;;;9.08;5.60;;;;;;;11.13;84.10;99833.11;1756814;81;25710;-66
2022/06/22 03:15:47;;;;;;;8.53;5.85;;;;;;;11.16;84.17;99845.22;1756965;81;25539;-67
2022/06/22 03:18:23;;;;;;;8.18;6.47;;;;;;;11.19;84.29;99840.52;1756764;81;28019;-67
2022/06/22 03:20:54;;;;;;;8.70;6.37;;;;;;;11.24;84.40;99844.94;1756720;80;25789;-67
2022/06/22 03:23:41;;;;;;;7.03;5.70;;;;;;;11.26;84.48;99841.37;1756259;80;25609;-68
2022/06/22 03:26:19;;;;;;;8.33;7.12;;;;;;;11.29;84.69;99844.77;1756757;81;25674;-67
2022/06/22 03:28:51;;;;;;;9.85;6.60;;;;;;;11.33;84.85;99848.42;1756917;81;25634;-67
2022/06/22 03:31:22;;;;;;;7.80;5.90;;;;;;;11.36;84.97;99841.80;1756919;81;27479;-66
2022/06/22 03:33:58;;;;;;;9.90;6.85;;;;;;;11.40;85.17;99843.30;1756798;81;25393;-66
2022/06/22 03:36:42;;;;;;;12.70;7.20;;;;;;;11.45;85.43;99832.28;1755832;81;25594;-67
2022/06/22 03:39:14;;;;;;;8.90;6.10;;;;;;;11.51;85.64;99836.41;1735631;81;25617;-67
2022/06/22 03:42:07;;;;;;;9.00;6.33;;;;;;;11.58;85.85;99839.95;1754199;81;25438;-67
2022/06/22 03:44:39;;;;;;;10.63;6.95;;;;;;;11.63;85.86;99837.06;1743871;81;27268;-66
2022/06/22 03:47:15;;;;;;;10.45;6.40;;;;;;;11.69;85.92;99831.67;1745885;82;25430;-66
2022/06/22 03:49:56;;;;;;;10.10;6.60;;;;;;;11.73;85.98;99828.56;1745979;82;25592;-67
2022/06/22 03:52:29;;;;;;;10.72;6.00;;;;;;;11.79;85.96;99829.16;1746001;82;25753;-71
2022/06/22 03:55:13;;;;;;;8.00;6.60;;;;;;;11.84;86.07;99824.91;1746176;82;25629;-67
2022/06/22 03:57:43;;;;;;;7.67;6.50;;;;;;;11.90;86.17;99824.14;1728381;82;27314;-66
2022/06/22 04:00:12;;;;;;;12.03;6.47;;;;;;;11.94;86.15;99828.61;1745546;82;25450;-66
2022/06/22 04:02:40;;;;;;;9.18;6.10;;;;;;;12.01;86.24;99828.66;1746203;82;25625;-66
2022/06/22 04:05:18;;;;;;;10.15;6.10;;;;;;;12.06;86.31;99835.23;1746003;82;26553;-68
2022/06/22 04:07:45;;;;;;;11.28;6.65;;;;;;;12.10;86.37;99832.87;1745522;82;25375;-69
2022/06/22 04:10:23;;;;;;;11.30;6.85;;;;;;;12.17;86.60;99837.77;1726839;82;28110;-68
2022/06/22 04:12:52;;;;;;;8.48;6.20;;;;;;;12.25;86.83;99838.27;1661057;86;25762;-69
2022/06/22 04:15:30;;;;;;;9.37;6.60;;;;;;;12.32;86.93;99842.59;1661432;86;25462;-69
2022/06/22 04:18:04;;;;;;;6.72;5.92;;;;;;;12.49;87.14;99859.29;1660292;85;25794;-69
2022/06/22 04:20:51;;;;;;;11.80;6.60;;;;;;;12.49;87.00;99847.08;1632575;86;25495;-69
2022/06/22 04:23:45;;;;;;;9.90;6.33;;;;;;;12.58;87.12;99857.08;1661274;86;27891;-69
2022/06/22 04:26:31;;;;;;;10.65;5.35;;;;;;;12.65;86.78;99858.13;1661155;86;25710;-68
2022/06/22 04:29:17;;;;;;;7.97;5.53;;;;;;;12.74;86.69;99857.27;1660367;86;26195;-67
2022/06/22 04:31:52;;;;;;;8.18;5.92;;;;;;;12.81;86.64;99860.23;1661159;86;25646;-69
2022/06/22 04:34:35;;;;;;;10.58;6.20;;;;;;;12.86;86.55;99863.52;1660675;85;25747;-63
2022/06/22 04:37:09;;;;;;;8.43;5.05;;;;;;;12.95;86.66;99860.70;1661235;86;27390;-67
2022/06/22 04:39:42;;;;;;;7.08;5.08;;;;;;;13.02;86.71;99858.80;1661154;86;25702;-66
2022/06/22 04:42:10;;;;;;;8.60;6.05;;;;;;;13.08;86.27;99864.27;1664412;85;25496;-66
2022/06/22 04:44:47;;;;;;;11.85;8.60;;;;;;;13.15;86.18;99861.78;1688059;85;25606;-66
2022/06/22 04:47:21;;;;;;;8.08;5.28;;;;;;;13.23;86.15;99875.05;1690280;84;25507;-67
2022/06/22 04:50:11;;;;;;;7.78;5.15;;;;;;;13.31;86.09;99866.55;1719916;80;28276;-69
2022/06/22 04:52:44;;;;;;;9.03;5.50;;;;;;;13.41;86.41;99875.66;1777339;80;25685;-68
2022/06/22 04:55:16;;;;;;;8.55;5.10;;;;;;;13.49;85.95;99880.20;1767204;80;25544;-67
2022/06/22 04:57:48;;;;;;;5.95;4.45;;;;;;;13.58;85.70;99877.36;1767228;80;26364;-67
2022/06/22 05:00:19;;;;;;;5.35;4.53;;;;;;;13.64;85.24;99878.16;1778078;80;25561;-68
2022/06/22 05:02:52;;;;;;;7.78;4.70;;;;;;;13.73;85.49;99876.69;1777786;80;27310;-67
2022/06/22 05:05:31;;;;;;;7.17;4.75;;;;;;;13.81;85.23;99862.19;1777807;80;25464;-69
2022/06/22 05:08:15;;;;;;;12.73;7.53;;;;;;;13.89;85.21;99859.69;1765581;80;25647;-68
2022/06/22 05:10:52;;;;;;;6.55;4.78;;;;;;;13.98;85.02;99859.02;1759953;80;26546;-68
2022/06/22 05:13:42;;;;;;;14.47;5.37;;;;;;;14.09;85.18;99862.05;1728928;82;25563;-68
2022/06/22 05:16:20;;;;;;;8.90;5.53;;;;;;;14.18;84.83;99863.51;1729060;83;27342;-68
2022/06/22 05:18:49;;;;;;;6.60;4.72;;;;;;;14.27;84.48;99859.28;1729102;83;25754;-69
2022/06/22 05:21:39;;;;;;;4.60;4.10;;;;;;;14.36;84.26;99853.70;1754687;80;34679;-69
2022/06/22 05:24:30;;;;;;;7.75;4.62;;;;;;;14.46;83.95;99866.04;1757926;81;25601;-68
2022/06/22 05:26:59;;;;;;;7.37;4.20;;;;;;;14.55;83.74;99863.37;1759379;81;25665;-68
2022/06/22 05:29:31;;;;;;;10.03;4.22;;;;;;;14.69;83.72;99858.95;1759211;81;28351;-68
2022/06/22 05:32:02;;;;;;;5.70;3.90;;;;;;;14.81;83.38;99866.82;1757943;81;25810;-66
2022/06/22 05:34:33;;;;;;;4.70;3.98;;;;;;;14.98;83.61;99870.58;1749810;81;25411;-68
2022/06/22 05:37:14;;;;;;;5.62;4.22;;;;;;;15.17;83.66;99875.94;1727544;81;25705;-66
2022/06/22 05:39:42;;;;;;;6.78;4.28;;;;;;;15.37;83.25;99881.70;1759204;81;25551;-66
2022/06/22 05:42:11;;;;;;;8.53;3.95;;;;;;;15.57;82.57;99873.05;1756744;81;27329;-66
2022/06/22 05:44:38;;;;;;;5.07;3.67;;;;;;;16.01;81.75;99883.05;1746083;82;25627;-66
2022/06/22 05:47:05;;;;;;;6.22;3.70;;;;;;;16.01;81.75;99883.05;1745916;81;25464;-65
2022/06/22 05:49:40;;;;;;;7.45;3.80;;;;;;;16.14;81.62;99872.80;1738909;82;25626;-66
2022/06/22 05:52:39;;;;;;;7.08;3.70;;;;;;;16.30;81.13;99871.41;1720088;83;25750;-66
2022/06/22 05:55:47;;;;;;;6.72;3.60;;;;;;;16.42;80.00;99869.31;1669087;85;27544;-65
2022/06/22 05:58:39;;;;;;;8.75;3.10;;;;;;;16.55;79.19;99873.26;1591783;89;25698;-66
2022/06/22 06:01:14;;;;;;;3.92;3.17;;;;;;;16.71;79.07;99874.56;1583598;90;25605;-67
2022/06/22 06:03:52;;;;;;;10.18;5.05;;;;;;;16.84;77.89;99881.48;1578762;90;25861;-67
2022/06/22 06:06:35;;;;;;;5.80;3.20;;;;;;;16.96;77.51;99884.05;1591647;88;25839;-67
2022/06/22 06:09:06;;;;;;;5.87;3.75;;;;;;;17.10;76.56;99883.52;1590421;90;28107;-67
2022/06/22 06:11:43;;;;;;;7.10;3.25;;;;;;;17.25;76.26;99884.57;1591726;90;25690;-67
2022/06/22 06:14:20;;;;;;;4.35;2.75;;;;;;;17.39;75.40;99890.08;1591755;90;25662;-66
2022/06/22 06:16:57;;;;;;;10.80;3.10;;;;;;;17.53;75.59;99887.56;1596862;89;25714;-66
2022/06/22 06:19:28;;;;;;;12.35;6.03;;;;;;;17.71;74.85;99885.91;1591823;90;25553;-67
2022/06/22 06:21:59;;;;;;;6.60;3.33;;;;;;;17.89;73.86;99892.25;1591766;90;27996;-67
2022/06/22 06:24:40;;;;;;;5.83;3.12;;;;;;;18.07;73.59;99890.56;1591753;90;25441;-67
2022/06/22 06:27:34;;;;;;;4.22;2.55;;;;;;;18.20;72.75;99882.13;1591747;89;25543;-67
2022/06/22 06:30:10;;;;;;;5.75;2.92;;;;;;;18.37;72.43;99882.97;1591826;90;25671;-66
2022/06/22 06:33:18;;;;;;;3.33;2.80;;;;;;;18.57;71.88;99876.73;1591955;90;25546;-66
2022/06/22 06:35:52;;;;;;;4.87;2.55;;;;;;;18.72;70.40;99887.28;1721529;82;27378;-66
2022/06/22 06:38:41;;;;;;;5.05;3.05;;;;;;;18.85;70.32;99883.75;1720580;82;25921;-66
2022/06/22 06:41:38;;;;;;;9.18;3.42;;;;;;;19.00;69.89;99871.77;1731283;82;25617;-67
2022/06/22 06:44:16;;;;;;;7.67;3.00;;;;;;;19.18;69.82;99876.63;1733895;82;25625;-67
2022/06/22 06:46:47;;;;;;;5.60;2.70;;;;;;;19.38;68.81;99873.09;1728686;82;25476;-66
2022/06/22 06:49:30;;;;;;;7.12;4.50;;;;;;;19.56;68.74;99884.20;1728673;82;27402;-67
2022/06/22 06:52:01;;;;;;;6.45;3.00;;;;;;;19.74;68.22;99867.88;1708071;82;25678;-66
2022/06/22 06:55:05;;;;;;;4.55;2.72;;;;;;;19.94;67.82;99873.34;1728677;82;25452;-66
2022/06/22 06:57:34;;;;;;;3.90;2.60;;;;;;;20.09;67.00;99869.30;1720900;82;25442;-67
2022/06/22 07:00:06;;;;;;;5.40;2.60;;;;;;;20.23;65.86;99871.34;1717343;82;25631;-66
2022/06/22 07:02:37;;;;;;;7.10;2.70;;;;;;;20.36;65.22;99862.95;1717235;82;27915;-67
2022/06/22 07:05:09;;;;;;;5.60;2.58;;;;;;;20.51;64.62;99860.46;1717212;83;25565;-67
2022/06/22 07:08:13;;;;;;;3.00;2.37;;;;;;;20.61;64.26;99862.28;1717208;81;25462;-67
2022/06/22 07:10:51;;;;;;;7.10;4.35;;;;;;;20.71;62.57;99869.20;1714401;82;25692;-67
2022/06/22 07:13:50;;;;;;;6.42;2.58;;;;;;;20.81;62.08;99878.66;1717277;82;25713;-67
2022/06/22 07:16:25;;;;;;;4.58;2.37;;;;;;;20.88;61.24;99885.54;1717394;83;27281;-67
2022/06/22 07:19:14;;;;;;;8.43;2.40;;;;;;;21.00;60.55;99879.48;1717146;82;25410;-68
2022/06/22 07:21:49;;;;;;;2.80;2.20;;;;;;;21.12;60.52;99872.83;1717256;82;25741;-67
2022/06/22 07:24:20;;;;;;;6.15;2.05;;;;;;;21.34;61.21;99873.64;1717164;81;25741;-68
2022/06/22 07:27:21;;;;;;;4.58;2.08;;;;;;;21.56;60.49;99881.34;1717199;82;25611;-68
2022/06/22 07:30:08;;;;;;;2.85;2.15;;;;;;;21.80;60.21;99882.49;1717241;82;28250;-66
2022/06/22 07:33:08;;;;;;;2.87;2.30;;;;;;;22.03;59.07;99882.04;1716840;81;25449;-67
2022/06/22 07:35:39;;;;;;;2.85;1.80;;;;;;;22.22;58.27;99871.77;1723054;82;25691;-68
2022/06/22 07:38:29;;;;;;;3.77;2.40;;;;;;;22.42;57.15;99875.66;1718705;83;25705;-67
2022/06/22 07:43:42;;;;;;;4.25;2.05;;;;;;;22.92;56.67;99879.55;1712950;83;27409;-67
2022/06/22 07:46:14;;;;;;;4.90;2.35;;;;;;;23.22;56.52;99880.17;1723749;83;25800;-66
2022/06/22 07:48:45;;;;;;;2.27;2.00;;;;;;;23.46;55.44;99880.59;1722983;83;25694;-66
2022/06/22 07:51:16;;;;;;;8.78;2.40;;;;;;;23.63;53.71;99875.30;1723866;82;25658;-67
2022/06/22 07:54:12;;;;;;;4.45;2.05;;;;;;;23.76;54.30;99861.78;1722896;82;25440;-67
2022/06/22 07:56:58;;;;;;;3.75;1.67;;;;;;;23.99;53.82;99866.69;1721206;82;27345;-67
2022/06/22 07:59:45;;;;;;;3.75;2.02;;;;;;;24.16;53.29;99865.73;1709988;83;25658;-67
2022/06/22 08:02:19;;;;;;;4.17;2.17;;;;;;;24.41;53.05;99868.17;1709988;83;25606;-67
2022/06/22 08:05:03;;;;;;;4.55;2.52;;;;;;;24.71;52.93;99873.56;1709407;83;25782;-68
2022/06/22 08:07:43;;;;;;;2.37;1.95;;;;;;;24.95;51.52;99879.16;1710089;83;25621;-69
2022/06/22 08:10:14;;;;;;;1.80;1.70;;;;;;;25.19;50.58;99875.06;1675863;83;27357;-68
2022/06/22 08:13:06;;;;;;;1.47;1.20;;;;;;;25.42;50.58;99874.31;1705611;84;25609;-67
2022/06/22 08:15:37;;;;;;;2.55;1.77;;;;;;;25.68;48.81;99869.93;1705885;84;25596;-66
2022/06/22 08:18:04;;;;;;;2.52;1.70;;;;;;;25.93;48.81;99872.22;1704649;83;25648;-67
2022/06/22 08:20:35;;;;;;;3.75;1.70;;;;;;;26.22;48.40;99880.02;1705876;84;25392;-67
2022/06/22 08:23:05;;;;;;;1.52;1.42;;;;;;;26.35;46.98;99876.02;1705783;84;27421;-66
2022/06/22 08:25:33;;;;;;;2.17;1.67;;;;;;;26.57;46.33;99881.28;1705792;84;25630;-69
2022/06/22 08:28:02;;;;;;;1.80;1.40;;;;;;;26.81;46.17;99879.81;1705810;84;25465;-66
2022/06/22 08:30:29;;;;;;;;;;;;;;;26.99;45.24;99887.75;1689904;84;26293;-67
2022/06/22 08:33:03;;;;;;;2.85;1.57;;;;;;;27.14;44.66;99883.43;1705960;83;25646;-67
2022/06/22 08:35:43;;;;;;;1.98;1.40;;;;;;;27.37;44.39;99882.49;1705731;84;27496;-66
2022/06/22 08:38:17;;;;;;;2.92;1.92;;;;;;;27.50;43.34;99867.93;1701866;83;25550;-66
2022/06/22 08:41:20;;;;;;;1.65;1.47;;;;;;;27.53;42.83;99876.75;1702024;83;25676;-66
2022/06/22 08:44:11;;;;;;;3.95;1.42;;;;;;;27.54;41.84;99872.16;1687147;84;26297;-67
2022/06/22 08:47:09;;;;;;;9.18;2.05;;;;;;;27.56;40.96;99871.11;1674413;84;25513;-67
2022/06/22 08:50:08;;;;;;;6.95;2.50;;;;;;;27.60;41.63;99869.66;1703722;84;27409;-66
2022/06/22 08:53:06;;;;;;;5.58;1.60;;;;;;;27.87;41.55;99861.59;1705849;84;25409;-67
2022/06/22 08:56:07;;;;;;;1.85;1.30;;;;;;;28.18;40.73;99863.36;1684999;84;25586;-67
2022/06/22 08:58:53;;;;;;;4.95;1.32;;;;;;;28.41;40.11;99867.08;1731818;82;25615;-67
2022/06/22 09:01:39;;;;;;;2.35;1.90;;;;;;;28.60;39.65;99870.91;1706571;82;25467;-67
2022/06/22 09:04:41;;;;;;;4.12;1.50;;;;;;;28.89;39.20;99870.81;1735490;82;27312;-66
2022/06/22 09:07:19;;;;;;;2.02;1.77;;;;;;;29.11;38.40;99875.09;1709578;82;25658;-66
2022/06/22 09:10:22;;;;;;;7.03;4.30;;;;;;;29.30;38.20;99881.66;1736733;82;25475;-67
2022/06/22 09:12:57;;;;;;;1.95;1.37;;;;;;;29.47;37.80;99877.36;1736777;82;25616;-66
2022/06/22 09:15:57;;;;;;;1.20;1.10;;;;;;;29.62;37.43;99882.61;1731909;82;25570;-66
2022/06/22 09:18:50;;;;;;;1.40;1.20;;;;;;;29.85;36.61;99871.70;1736419;82;27415;-66
2022/06/22 09:22:06;;;;;;;2.62;1.20;;;;;;;29.98;36.11;99882.78;1736026;82;25828;-66
2022/06/22 09:24:50;;;;;;;2.37;1.27;;;;;;;30.04;36.21;99880.22;1736710;82;25556;-67
2022/06/22 09:27:27;;;;;;;1.92;1.32;;;;;;;30.16;35.38;99876.58;1736774;82;25853;-67
2022/06/22 09:30:22;;;;;;;2.65;1.32;;;;;;;30.27;35.08;99878.34;1736894;82;25643;-67
2022/06/22 09:33:25;;;;;;;2.02;1.60;;;;;;;30.27;34.44;99881.75;1736472;82;27342;-65
2022/06/22 09:36:27;;;;;;;2.15;1.10;;;;;;;30.31;34.50;99879.63;1736002;82;25722;-67
2022/06/22 09:39:30;;;;;;;1.57;1.30;;;;;;;30.36;34.76;99886.04;1728598;82;25623;-65
2022/06/22 09:42:34;;;;;;;5.67;1.40;;;;;;;30.52;34.97;99890.62;1714532;82;25831;-65
2022/06/22 09:45:49;;;;;;;2.22;1.15;;;;;;;30.54;33.72;99898.68;1704902;83;26777;-67
2022/06/22 09:48:42;;;;;;;2.37;1.40;;;;;;;30.23;33.63;99893.05;1744846;82;28058;-66
2022/06/22 09:51:26;;;;;;;1.15;1.12;;;;;;;30.39;34.12;99892.70;1732944;82;25630;-65
2022/06/22 09:54:07;;;;;;;1.75;1.60;;;;;;;30.72;33.98;99891.66;1740657;82;25670;-65
2022/06/22 09:57:02;;;;;;;2.55;1.40;;;;;;;30.91;33.67;99881.34;1739582;82;25663;-65
2022/06/22 09:59:51;;;;;;;3.12;1.67;;;;;;;30.99;33.31;99876.27;1720630;82;25765;-65
2022/06/22 10:02:23;;;;;;;;;;;;;;;30.67;32.65;99870.70;1733887;82;27847;-66
2022/06/22 10:05:06;;;;;;;2.42;1.40;;;;;;;30.22;32.50;99886.52;1740584;82;25727;-66
2022/06/22 10:07:49;;;;;;;4.72;1.65;;;;;;;30.02;33.08;99881.26;1740667;82;25788;-66
2022/06/22 10:10:27;;;;;;;2.20;1.35;;;;;;;30.09;32.93;99873.43;1740563;82;26365;-66
2022/06/22 10:13:29;;;;;;;3.10;1.70;;;;;;;30.01;33.03;99877.70;1740415;82;25705;-66
2022/06/22 10:16:31;;;;;;;3.50;1.57;;;;;;;29.87;33.07;99876.20;1717619;83;27995;-66
2022/06/22 10:19:43;;;;;;;2.37;2.05;;;;;;;29.73;33.63;99888.60;1716397;83;26244;-66
2022/06/22 10:22:43;;;;;;;4.72;1.92;;;;;;;30.08;34.12;99886.42;1713312;83;25662;-67
2022/06/22 10:25:23;;;;;;;3.85;2.10;;;;;;;30.25;33.70;99879.41;1713233;83;28003;-66
2022/06/22 10:28:22;;;;;;;3.87;1.55;;;;;;;30.14;33.11;99877.03;1704546;83;25801;-66
2022/06/22 10:31:11;;;;;;;2.35;1.42;;;;;;;30.11;33.60;99877.93;1713495;83;28224;-65
2022/06/22 10:34:22;;;;;;;3.50;1.20;;;;;;;30.35;33.69;99873.29;1713340;83;27188;-65
2022/06/22 10:37:29;;;;;;;2.70;1.40;;;;;;;30.63;33.66;99874.26;1713341;83;25753;-65
2022/06/22 10:45:08;;;;;;;3.75;1.47;;;;;;;30.96;32.84;99875.82;1685337;83;25842;-66
2022/06/22 10:45:57;;;;;;;3.10;1.40;;;;;;;31.04;32.90;99872.88;1713384;83;27365;-65
2022/06/22 10:48:54;;;;;;;13.90;6.15;;;;;;;31.24;32.61;99880.85;1713410;83;25942;-65
2022/06/22 10:51:40;;;;;;;4.42;1.55;;;;;;;31.59;32.72;99876.45;1715016;82;25668;-66
2022/06/22 10:54:42;;;;;;;4.25;1.90;;;;;;;31.87;31.98;99875.06;1736176;82;25670;-65
2022/06/22 10:57:46;;;;;;;2.75;1.47;;;;;;;31.71;31.20;99874.13;1717692;82;25563;-66
2022/06/22 11:00:40;;;;;;;3.95;1.47;;;;;;;30.99;30.97;99872.08;1722164;82;27320;-65
2022/06/22 11:03:24;;;;;;;4.80;2.00;;;;;;;30.54;31.64;99865.82;1733565;82;25634;-65
2022/06/22 11:06:01;;;;;;;5.28;1.90;;;;;;;30.62;31.93;99867.73;1744818;82;25578;-65
2022/06/22 11:08:54;;;;;;;3.80;1.57;;;;;;;30.65;32.30;99870.38;1745002;82;26871;-65
2022/06/22 11:11:31;;;;;;;2.10;1.50;;;;;;;30.87;32.15;99870.33;1741702;82;25746;-65
2022/06/22 11:14:21;;;;;;;4.03;1.37;;;;;;;30.96;32.15;99879.37;1740809;82;27481;-65
2022/06/22 11:17:29;;;;;;;3.75;1.55;;;;;;;31.06;31.88;99881.59;1740754;82;25390;-65
2022/06/22 11:20:13;;;;;;;3.17;1.90;;;;;;;31.28;31.64;99884.30;1740972;82;25635;-65
2022/06/22 11:23:18;;;;;;;7.53;2.27;;;;;;;31.48;31.25;99876.86;1740895;82;26182;-65
2022/06/22 11:32:22;;;;;;;4.20;2.20;;;;;;;31.88;30.26;99858.45;1631259;87;25503;-64
2022/06/22 11:35:13;;;;;;;2.67;1.85;;;;;;;31.96;30.15;99855.47;1631018;87;25523;-64
2022/06/22 11:38:07;;;;;;;4.90;1.87;;;;;;;32.14;30.71;99858.91;1633857;87;25866;-65
2022/06/22 11:41:13;;;;;;;5.00;1.75;;;;;;;32.32;30.14;99859.50;1630233;87;25316;-64
2022/06/22 11:43:57;;;;;;;6.03;1.80;;;;;;;32.20;29.54;99859.84;1635509;87;29366;-64
2022/06/22 11:46:29;;;;;;;3.47;1.67;;;;;;;32.09;29.92;99862.33;1635363;87;25831;-65
2022/06/22 11:49:19;;;;;;;3.60;1.10;;;;;;;32.11;28.83;99857.04;1619931;87;25751;-65
2022/06/22 11:52:42;;;;;;;2.52;1.67;;;;;;;32.17;28.81;99849.58;1625498;87;25689;-65
2022/06/22 11:55:31;;;;;;;5.40;1.57;;;;;;;32.34;29.25;99850.01;1625357;87;25789;-65
2022/06/22 11:58:31;;;;;;;5.45;2.60;;;;;;;32.55;28.85;99855.98;1640454;87;27345;-63
2022/06/22 12:01:31;;;;;;;2.62;1.72;;;;;;;32.70;28.66;99853.33;1642671;87;26313;-64
2022/06/22 12:04:17;;;;;;;1.82;1.42;;;;;;;32.70;28.66;99853.33;1625128;87;25788;-64
2022/06/22 12:07:07;;;;;;;4.45;1.82;;;;;;;32.67;28.08;99857.70;1693728;84;25679;-64
2022/06/22 12:09:59;;;;;;;3.27;1.42;;;;;;;32.83;28.43;99849.53;1662851;86;25652;-65
2022/06/22 12:12:40;;;;;;;4.58;1.60;;;;;;;32.95;28.55;99854.92;1663011;86;27976;-65
2022/06/22 12:15:33;;;;;;;3.25;1.45;;;;;;;33.09;28.21;99847.84;1643259;87;25729;-64
2022/06/22 12:18:23;;;;;;;5.12;1.50;;;;;;;33.14;27.77;99852.03;1693952;84;25704;-65
2022/06/22 12:21:35;;;;;;;3.67;2.00;;;;;;;32.92;27.65;99883.11;1693358;84;27768;-64
2022/06/22 12:24:13;;;;;;;3.47;1.62;;;;;;;32.92;27.65;99883.11;1692063;84;25414;-64
2022/06/22 12:26:51;;;;;;;4.12;1.72;;;;;;;32.47;27.10;99861.00;1689198;84;28145;-65
2022/06/22 12:29:38;;;;;;;3.37;1.50;;;;;;;32.25;27.72;99857.01;1671063;85;25749;-65
2022/06/22 12:32:28;;;;;;;5.65;2.15;;;;;;;32.29;27.40;99861.83;1688954;83;25636;-64
2022/06/22 12:35:05;;;;;;;4.80;1.70;;;;;;;32.19;27.66;99866.66;1669342;86;25738;-63
2022/06/22 12:37:43;;;;;;;4.42;2.40;;;;;;;31.92;27.65;99869.61;1686201;85;25824;-63
2022/06/22 12:40:33;;;;;;;3.90;1.90;;;;;;;31.88;28.10;99863.41;1664911;85;27418;-66
2022/06/22 12:43:23;;;;;;;4.87;2.60;;;;;;;31.96;28.10;99870.24;1687349;83;25716;-66
2022/06/22 12:46:29;;;;;;;3.30;2.25;;;;;;;32.15;28.32;99860.47;1687566;85;25636;-65
2022/06/22 12:49:22;;;;;;;4.90;1.82;;;;;;;32.11;28.01;99880.81;1687646;83;25723;-64
2022/06/22 12:52:09;;;;;;;4.92;1.82;;;;;;;31.88;27.96;99882.22;1695912;83;25649;-65
2022/06/22 12:54:46;;;;;;;3.05;1.35;;;;;;;31.64;28.09;99866.05;1704166;83;27457;-64
2022/06/22 12:57:19;;;;;;;2.75;1.45;;;;;;;31.64;28.09;99866.05;1661732;85;25616;-65
2022/06/22 12:59:51;;;;;;;3.20;1.60;;;;;;;31.26;27.79;99857.41;1658917;84;25823;-64
2022/06/22 13:02:25;;;;;;;2.47;1.80;;;;;;;30.79;27.98;99866.88;1684487;84;25484;-64
2022/06/22 13:05:02;;;;;;;3.20;1.65;;;;;;;30.52;28.57;99853.72;1680354;84;25718;-64